Time;durP1;ratioP1;P1;durP2;ratioP2;P2;SDS_P1;SDS_P2;PMS_P1;PMS_P2;Temp;Humidity;BMP_temperature;BMP_pressure;BME280_temperature;BME280_humidity;BME280_pressure;Samples;Min_cycle;Max_cycle;Signal;HPM_P1;HPM_P2
2023/04/09 00:01:44;;;;;;;;;;;5.40;99.90;;;;;;4980188;28;19921;-80
2023/04/09 00:04:14;;;;;;;;;;;5.50;99.90;;;;;;4995861;28;20352;-80
2023/04/09 00:06:40;;;;;;;;;;;5.40;99.90;;;;;;4973855;28;20388;-80
2023/04/09 00:09:13;;;;;;;;;;;5.40;99.90;;;;;;4979652;28;21020;-80
2023/04/09 00:11:40;;;;;;;;;;;5.40;99.90;;;;;;4992964;28;20438;-80
2023/04/09 00:14:07;;;;;;;;;;;5.40;99.90;;;;;;4990319;28;20004;-80
2023/04/09 00:16:40;;;;;;;;;;;5.40;99.90;;;;;;4979407;28;19949;-79
2023/04/09 00:19:08;;;;;;;;;;;5.40;99.90;;;;;;4983744;28;19916;-80
2023/04/09 00:21:40;;;;;;;;;;;5.40;99.90;;;;;;4993831;28;19972;-80
2023/04/09 00:24:07;;;;;;;;;;;5.40;99.90;;;;;;4973514;28;21522;-80
2023/04/09 00:26:34;;;;;;;;;;;5.30;99.90;;;;;;4974445;28;19920;-80
2023/04/09 00:29:09;;;;;;;;;;;5.30;99.90;;;;;;4975334;28;19906;-80
2023/04/09 00:31:35;;;;;;;;;;;5.30;99.90;;;;;;4974643;28;19909;-80
2023/04/09 00:34:01;;;;;;;;;;;5.30;99.90;;;;;;4988835;28;19964;-80
2023/04/09 00:36:26;;;;;;;;;;;5.30;99.90;;;;;;4993615;28;19910;-80
2023/04/09 00:38:57;;;;;;;;;;;5.30;99.90;;;;;;4979965;28;19901;-80
2023/04/09 00:41:28;;;;;;;;;;;5.20;99.90;;;;;;4989117;28;19905;-79
2023/04/09 00:44:01;;;;;;;;;;;5.30;99.90;;;;;;4975708;28;19973;-79
2023/04/09 00:46:36;;;;;;;;;;;5.30;99.90;;;;;;4981206;28;19910;-80
2023/04/09 00:49:01;;;;;;;;;;;5.30;99.90;;;;;;4982574;28;20003;-80
2023/04/09 00:51:34;;;;;;;;;;;5.20;99.90;;;;;;4983566;28;20528;-80
2023/04/09 00:54:01;;;;;;;;;;;5.20;99.90;;;;;;4979092;28;20390;-80
2023/04/09 00:56:28;;;;;;;;;;;5.20;99.90;;;;;;4970618;28;19910;-80
2023/04/09 00:58:58;;;;;;;;;;;5.20;99.90;;;;;;4990773;28;19906;-80
2023/04/09 01:01:25;;;;;;;;;;;5.10;99.90;;;;;;4970932;28;19996;-80
2023/04/09 01:03:53;;;;;;;;;;;5.10;99.90;;;;;;4972811;28;20252;-79
2023/04/09 01:06:25;;;;;;;;;;;5.10;99.90;;;;;;4987983;28;19910;-80
2023/04/09 01:09:20;;;;;;;;;;;5.10;99.90;;;;;;4976513;28;19921;-80
2023/04/09 01:12:08;;;;;;;;;;;5.10;99.90;;;;;;4978833;28;19916;-80
2023/04/09 01:14:44;;;;;;;;;;;5.10;99.90;;;;;;4978282;28;19921;-80
2023/04/09 01:17:17;;;;;;;;;;;5.10;99.90;;;;;;4978708;28;19922;-80
2023/04/09 01:20:04;;;;;;;;;;;5.10;99.90;;;;;;4981582;28;19992;-80
2023/04/09 01:22:32;;;;;;;;;;;5.10;99.90;;;;;;4981799;28;19993;-80
2023/04/09 01:25:31;;;;;;;;;;;5.00;99.90;;;;;;4977069;28;19976;-79
2023/04/09 01:28:07;;;;;;;;;;;5.00;99.90;;;;;;4976663;28;20000;-80
2023/04/09 01:30:34;;;;;;;;;;;5.00;99.90;;;;;;4978711;28;19972;-80
2023/04/09 01:33:01;;;;;;;;;;;5.00;99.90;;;;;;4963353;28;20409;-80
2023/04/09 01:35:29;;;;;;;;;;;5.00;99.90;;;;;;4966523;28;19988;-80
2023/04/09 01:38:05;;;;;;;;;;;5.00;99.90;;;;;;4968878;28;19917;-80
2023/04/09 01:40:31;;;;;;;;;;;5.00;99.90;;;;;;4972728;28;19909;-80
2023/04/09 01:43:01;;;;;;;;;;;5.10;99.90;;;;;;4972849;28;19972;-80
2023/04/09 01:45:37;;;;;;;;;;;5.10;99.90;;;;;;4980675;28;19910;-80
2023/04/09 01:48:04;;;;;;;;;;;5.10;99.90;;;;;;4976824;28;19953;-80
2023/04/09 01:50:36;;;;;;;;;;;5.10;99.90;;;;;;4967889;28;20012;-80
2023/04/09 01:53:06;;;;;;;;;;;5.10;99.90;;;;;;4978246;28;19914;-80
2023/04/09 01:55:42;;;;;;;;;;;5.10;99.90;;;;;;4976173;28;19910;-79
2023/04/09 01:58:08;;;;;;;;;;;5.10;99.90;;;;;;4982467;28;19957;-80
2023/04/09 02:00:45;;;;;;;;;;;5.00;99.90;;;;;;4968817;28;19909;-80
2023/04/09 02:03:15;;;;;;;;;;;5.00;99.90;;;;;;4981018;28;19921;-80
2023/04/09 02:05:44;;;;;;;;;;;5.00;99.90;;;;;;4977144;28;20495;-80
2023/04/09 02:08:11;;;;;;;;;;;5.00;99.90;;;;;;4979836;28;20363;-80
2023/04/09 02:10:38;;;;;;;;;;;5.00;99.90;;;;;;4977811;28;19918;-80
2023/04/09 02:13:06;;;;;;;;;;;5.00;99.90;;;;;;4970711;28;19933;-80
2023/04/09 02:15:35;;;;;;;;;;;4.90;99.90;;;;;;4989462;28;19918;-80
2023/04/09 02:18:05;;;;;;;;;;;5.00;99.90;;;;;;4982126;28;19921;-80
2023/04/09 02:20:35;;;;;;;;;;;5.00;99.90;;;;;;4977118;28;19985;-80
2023/04/09 02:23:01;;;;;;;;;;;5.00;99.90;;;;;;4973322;28;19910;-80
2023/04/09 02:25:28;;;;;;;;;;;4.90;99.90;;;;;;4968285;28;19910;-80
2023/04/09 02:27:54;;;;;;;;;;;4.90;99.90;;;;;;4986867;28;19906;-80
2023/04/09 02:30:24;;;;;;;;;;;4.90;99.90;;;;;;4983047;28;19905;-80
2023/04/09 02:32:54;;;;;;;;;;;4.70;99.90;;;;;;4981847;28;19912;-79
2023/04/09 02:35:20;;;;;;;;;;;4.70;99.90;;;;;;4982479;28;19921;-80
2023/04/09 02:37:46;;;;;;;;;;;4.60;99.90;;;;;;4982171;28;19912;-80
2023/04/09 02:40:34;;;;;;;;;;;4.60;99.90;;;;;;4981706;28;19917;-79
2023/04/09 02:43:03;;;;;;;;;;;4.60;99.90;;;;;;4987867;28;19906;-80
2023/04/09 02:45:31;;;;;;;;;;;4.60;99.90;;;;;;4989216;28;19909;-80
2023/04/09 02:47:59;;;;;;;;;;;4.60;99.90;;;;;;4984505;28;19972;-80
2023/04/09 02:50:25;;;;;;;;;;;4.60;99.90;;;;;;4979290;28;19906;-80
2023/04/09 02:52:51;;;;;;;;;;;4.60;99.90;;;;;;4981032;28;19914;-80
2023/04/09 02:55:17;;;;;;;;;;;4.60;99.90;;;;;;4967664;28;19916;-80
2023/04/09 02:57:53;;;;;;;;;;;4.60;99.90;;;;;;4980596;28;19914;-80
2023/04/09 03:00:20;;;;;;;;;;;4.60;99.90;;;;;;4980616;28;19941;-80
2023/04/09 03:02:49;;;;;;;;;;;4.60;99.90;;;;;;4985394;28;19906;-80
2023/04/09 03:05:14;;;;;;;;;;;4.60;99.90;;;;;;4978844;28;19906;-80
2023/04/09 03:07:41;;;;;;;;;;;4.50;99.90;;;;;;4979030;28;19917;-80
2023/04/09 03:10:08;;;;;;;;;;;4.40;99.90;;;;;;4976659;28;19941;-81
2023/04/09 03:12:37;;;;;;;;;;;4.40;99.90;;;;;;4980268;28;19906;-80
2023/04/09 03:15:05;;;;;;;;;;;4.40;99.90;;;;;;4985418;28;19924;-80
2023/04/09 03:17:42;;;;;;;;;;;4.40;99.90;;;;;;4984414;28;19969;-80
2023/04/09 03:20:07;;;;;;;;;;;4.50;99.90;;;;;;4979407;28;19914;-80
2023/04/09 03:22:36;;;;;;;;;;;4.50;99.90;;;;;;4983816;28;19913;-80
2023/04/09 03:25:03;;;;;;;;;;;4.50;99.90;;;;;;4968198;28;19905;-80
2023/04/09 03:27:29;;;;;;;;;;;4.50;99.90;;;;;;4980776;28;20364;-80
2023/04/09 03:29:55;;;;;;;;;;;4.40;99.90;;;;;;4979570;28;19913;-81
2023/04/09 03:32:21;;;;;;;;;;;4.40;99.90;;;;;;4966105;28;19910;-80
2023/04/09 03:34:47;;;;;;;;;;;4.40;99.90;;;;;;4981661;28;19921;-80
2023/04/09 03:37:15;;;;;;;;;;;4.50;99.90;;;;;;4993168;28;20267;-80
2023/04/09 03:39:43;;;;;;;;;;;4.40;99.90;;;;;;4985265;28;19921;-79
2023/04/09 03:42:20;;;;;;;;;;;4.40;99.90;;;;;;4979020;28;19913;-80
2023/04/09 03:44:47;;;;;;;;;;;4.40;99.90;;;;;;4983894;28;19988;-80
2023/04/09 03:47:14;;;;;;;;;;;4.40;99.90;;;;;;4990509;28;19909;-80
2023/04/09 03:49:41;;;;;;;;;;;4.40;99.90;;;;;;4984667;28;19992;-80
2023/04/09 03:52:08;;;;;;;;;;;4.40;99.90;;;;;;4969540;28;20107;-80
2023/04/09 03:54:36;;;;;;;;;;;4.40;99.90;;;;;;4983815;28;19909;-80
2023/04/09 03:57:08;;;;;;;;;;;4.50;99.90;;;;;;4979426;28;19948;-80
2023/04/09 03:59:45;;;;;;;;;;;4.60;99.90;;;;;;4978949;28;19992;-80
2023/04/09 04:02:25;;;;;;;;;;;4.60;99.90;;;;;;4983321;28;20343;-80
2023/04/09 04:04:54;;;;;;;;;;;4.70;99.90;;;;;;4979891;28;20000;-80
2023/04/09 04:07:26;;;;;;;;;;;4.70;99.90;;;;;;4980215;28;20379;-79
2023/04/09 04:10:02;;;;;;;;;;;4.70;99.90;;;;;;4990657;28;19932;-80
2023/04/09 04:12:30;;;;;;;;;;;4.70;99.90;;;;;;4978957;28;19906;-80
2023/04/09 04:14:56;;;;;;;;;;;4.80;99.90;;;;;;4965872;28;19976;-80
2023/04/09 04:17:29;;;;;;;;;;;4.80;99.90;;;;;;4983348;28;19924;-80
2023/04/09 04:19:58;;;;;;;;;;;4.80;99.90;;;;;;4979630;28;19912;-81
2023/04/09 04:22:24;;;;;;;;;;;4.80;99.90;;;;;;4971916;28;19906;-80
2023/04/09 04:24:49;;;;;;;;;;;4.90;99.90;;;;;;4983027;28;19921;-80
2023/04/09 04:27:16;;;;;;;;;;;4.90;99.90;;;;;;4974004;28;19910;-80
2023/04/09 04:29:44;;;;;;;;;;;4.90;99.90;;;;;;4984816;28;19920;-80
2023/04/09 04:32:13;;;;;;;;;;;4.90;99.90;;;;;;4985219;28;19914;-80
2023/04/09 04:34:40;;;;;;;;;;;4.90;99.90;;;;;;4978592;28;19918;-80
2023/04/09 04:37:05;;;;;;;;;;;4.90;99.90;;;;;;4983537;28;19910;-80
2023/04/09 04:39:37;;;;;;;;;;;5.00;99.90;;;;;;4968787;28;20255;-79
2023/04/09 04:42:04;;;;;;;;;;;5.00;99.90;;;;;;4982591;28;19913;-80
2023/04/09 04:44:32;;;;;;;;;;;5.00;99.90;;;;;;4971595;28;19920;-79
2023/04/09 04:46:59;;;;;;;;;;;5.00;99.90;;;;;;4982797;28;19909;-80
2023/04/09 04:49:26;;;;;;;;;;;5.10;99.90;;;;;;4983216;28;20037;-80
2023/04/09 04:51:52;;;;;;;;;;;5.10;99.90;;;;;;4983222;28;19905;-80
2023/04/09 04:54:18;;;;;;;;;;;5.10;99.90;;;;;;4977012;28;19917;-79
2023/04/09 04:56:52;;;;;;;;;;;5.20;99.90;;;;;;4974342;28;19996;-80
2023/04/09 04:59:24;;;;;;;;;;;5.20;99.90;;;;;;4979823;28;19905;-80
2023/04/09 05:01:54;;;;;;;;;;;5.20;99.90;;;;;;4983767;28;19913;-80
2023/04/09 05:04:22;;;;;;;;;;;5.30;99.90;;;;;;4981417;28;19906;-80
2023/04/09 05:06:47;;;;;;;;;;;5.30;99.90;;;;;;4975907;28;19909;-80
2023/04/09 05:09:17;;;;;;;;;;;5.40;99.90;;;;;;4965836;28;19913;-80
2023/04/09 05:11:43;;;;;;;;;;;5.40;99.90;;;;;;4973519;28;19949;-79
2023/04/09 05:14:28;;;;;;;;;;;5.50;99.90;;;;;;4977964;28;19949;-80
2023/04/09 05:16:56;;;;;;;;;;;5.60;99.90;;;;;;4989501;28;19913;-80
2023/04/09 05:19:33;;;;;;;;;;;5.60;99.90;;;;;;4979437;28;19968;-80
2023/04/09 05:22:00;;;;;;;;;;;5.70;99.90;;;;;;4978238;28;19910;-80
2023/04/09 05:24:26;;;;;;;;;;;5.70;99.90;;;;;;4966742;28;20298;-79
2023/04/09 05:26:53;;;;;;;;;;;5.80;99.90;;;;;;4979918;28;19909;-79
2023/04/09 05:29:20;;;;;;;;;;;5.80;99.90;;;;;;4979438;28;20000;-80
2023/04/09 05:31:48;;;;;;;;;;;5.90;99.90;;;;;;4979555;28;20623;-80
2023/04/09 05:34:16;;;;;;;;;;;6.00;99.90;;;;;;4970051;28;20004;-80
2023/04/09 05:36:44;;;;;;;;;;;6.10;99.90;;;;;;4987530;28;19906;-80
2023/04/09 05:39:10;;;;;;;;;;;6.20;99.90;;;;;;4978760;28;19906;-79
2023/04/09 05:41:37;;;;;;;;;;;6.20;99.90;;;;;;4979123;28;19913;-80
2023/04/09 05:44:16;;;;;;;;;;;6.30;99.90;;;;;;4982903;28;19914;-80
2023/04/09 05:46:42;;;;;;;;;;;6.30;99.90;;;;;;4978315;28;19972;-80
2023/04/09 05:49:16;;;;;;;;;;;6.40;99.90;;;;;;4979753;28;20375;-80
2023/04/09 05:51:42;;;;;;;;;;;6.50;99.90;;;;;;4976851;28;19906;-80
2023/04/09 05:54:09;;;;;;;;;;;6.60;99.90;;;;;;4978931;28;20023;-80
2023/04/09 05:56:36;;;;;;;;;;;6.70;99.90;;;;;;4978582;28;19920;-80
2023/04/09 05:59:17;;;;;;;;;;;6.80;99.90;;;;;;4977878;28;19916;-80
2023/04/09 06:01:46;;;;;;;;;;;7.00;99.90;;;;;;4985096;28;19913;-80
2023/04/09 06:04:12;;;;;;;;;;;7.20;99.90;;;;;;4984287;28;19910;-80
2023/04/09 06:06:39;;;;;;;;;;;7.40;99.90;;;;;;4978074;28;21202;-80
2023/04/09 06:09:04;;;;;;;;;;;7.50;99.90;;;;;;4967636;28;21340;-80
2023/04/09 06:11:30;;;;;;;;;;;7.60;99.90;;;;;;4981102;28;20000;-80
2023/04/09 06:13:56;;;;;;;;;;;7.70;99.90;;;;;;4993724;28;20040;-80
2023/04/09 06:16:23;;;;;;;;;;;7.90;99.90;;;;;;4985229;28;19973;-80
2023/04/09 06:18:49;;;;;;;;;;;8.10;99.90;;;;;;4983147;28;19918;-80
2023/04/09 06:21:15;;;;;;;;;;;8.30;99.90;;;;;;5002445;28;19910;-80
2023/04/09 06:23:41;;;;;;;;;;;8.30;99.90;;;;;;4983247;28;19916;-80
2023/04/09 06:26:07;;;;;;;;;;;8.30;99.90;;;;;;4984785;28;19936;-80
2023/04/09 06:28:32;;;;;;;;;;;8.40;99.90;;;;;;4980093;28;19910;-80
2023/04/09 06:30:58;;;;;;;;;;;8.40;99.90;;;;;;4998112;28;19905;-80
2023/04/09 06:33:24;;;;;;;;;;;8.50;99.90;;;;;;4980930;28;19906;-79
2023/04/09 06:35:50;;;;;;;;;;;8.60;99.90;;;;;;4970675;28;19914;-79
2023/04/09 06:38:15;;;;;;;;;;;8.80;99.90;;;;;;4981917;28;19932;-80
2023/04/09 06:40:42;;;;;;;;;;;8.90;99.90;;;;;;4980658;28;19910;-81
2023/04/09 06:43:08;;;;;;;;;;;9.10;99.90;;;;;;4979035;28;20124;-80
2023/04/09 06:45:36;;;;;;;;;;;9.40;99.90;;;;;;4970749;28;19909;-80
2023/04/09 06:48:10;;;;;;;;;;;9.30;99.90;;;;;;4975904;28;19921;-80
2023/04/09 06:50:40;;;;;;;;;;;9.40;99.90;;;;;;4991695;28;20024;-80
2023/04/09 06:53:09;;;;;;;;;;;9.50;99.90;;;;;;4985620;28;20027;-79
2023/04/09 06:55:35;;;;;;;;;;;9.80;99.90;;;;;;4985499;28;19917;-80
2023/04/09 06:58:04;;;;;;;;;;;9.90;99.90;;;;;;4989472;28;19937;-80
2023/04/09 07:00:30;;;;;;;;;;;10.60;99.90;;;;;;4972226;28;19924;-81
2023/04/09 07:02:55;;;;;;;;;;;11.50;99.90;;;;;;4985320;28;20279;-80
2023/04/09 07:05:21;;;;;;;;;;;12.30;99.90;;;;;;4969784;28;19937;-80
2023/04/09 07:07:47;;;;;;;;;;;13.50;99.90;;;;;;4971738;28;19913;-81
2023/04/09 07:10:16;;;;;;;;;;;14.80;99.90;;;;;;4971006;28;19914;-81
2023/04/09 07:12:41;;;;;;;;;;;16.10;99.90;;;;;;4979814;28;19918;-81
2023/04/09 07:15:08;;;;;;;;;;;17.70;96.30;;;;;;4974809;28;20211;-83
2023/04/09 07:17:42;;;;;;;;;;;18.60;92.50;;;;;;4971511;28;19949;-81
2023/04/09 07:20:07;;;;;;;;;;;18.20;90.80;;;;;;4982898;28;20000;-81
2023/04/09 07:22:35;;;;;;;;;;;17.60;90.30;;;;;;4971929;28;19910;-82
2023/04/09 07:25:00;;;;;;;;;;;18.50;90.00;;;;;;4979609;28;19996;-84
2023/04/09 07:27:45;;;;;;;;;;;18.30;89.30;;;;;;4971527;28;19910;-83
2023/04/09 07:30:10;;;;;;;;;;;18.00;89.50;;;;;;4980711;28;20602;-81
2023/04/09 07:32:39;;;;;;;;;;;15.70;90.30;;;;;;4970377;28;19909;-81
2023/04/09 07:35:20;;;;;;;;;;;14.50;96.10;;;;;;4981460;28;19921;-79
2023/04/09 07:37:54;;;;;;;;;;;13.90;98.70;;;;;;4985704;28;19933;-80
2023/04/09 07:40:23;;;;;;;;;;;13.30;99.90;;;;;;4978751;28;20004;-81
2023/04/09 07:42:49;;;;;;;;;;;12.90;99.90;;;;;;4988269;28;19933;-80
2023/04/09 07:45:17;;;;;;;;;;;12.30;99.90;;;;;;4976103;28;19996;-80
2023/04/09 07:47:42;;;;;;;;;;;11.50;99.90;;;;;;4966142;28;20667;-79
2023/04/09 07:50:09;;;;;;;;;;;11.00;99.90;;;;;;4983248;28;19909;-79
2023/04/09 07:52:35;;;;;;;;;;;10.90;99.90;;;;;;4979998;28;19921;-81
2023/04/09 07:55:00;;;;;;;;;;;10.30;99.90;;;;;;4979251;28;19913;-78
2023/04/09 07:57:32;;;;;;;;;;;10.70;99.90;;;;;;4987177;28;20000;-78
2023/04/09 08:00:02;;;;;;;;;;;10.80;99.90;;;;;;4980501;28;19912;-78
2023/04/09 08:02:28;;;;;;;;;;;11.20;99.90;;;;;;4970501;28;20578;-79
2023/04/09 08:04:55;;;;;;;;;;;11.10;99.90;;;;;;4977497;28;19905;-78
2023/04/09 08:07:22;;;;;;;;;;;10.50;99.90;;;;;;4984711;28;19906;-78
2023/04/09 08:09:49;;;;;;;;;;;10.60;99.90;;;;;;4978966;28;20657;-79
2023/04/09 08:12:17;;;;;;;;;;;10.40;99.90;;;;;;4975888;28;19910;-78
2023/04/09 08:14:49;;;;;;;;;;;10.20;99.90;;;;;;4978124;28;20052;-78
2023/04/09 08:17:16;;;;;;;;;;;10.10;99.90;;;;;;4959940;28;20005;-79
2023/04/09 08:19:43;;;;;;;;;;;10.50;99.90;;;;;;4986718;28;20028;-79
2023/04/09 08:22:13;;;;;;;;;;;10.70;99.90;;;;;;4991839;28;19920;-78
2023/04/09 08:24:49;;;;;;;;;;;11.00;99.90;;;;;;4990605;28;19917;-78
2023/04/09 08:27:17;;;;;;;;;;;11.10;99.90;;;;;;4975236;28;19968;-79
2023/04/09 08:29:44;;;;;;;;;;;11.30;99.90;;;;;;4978243;28;19921;-79
2023/04/09 08:32:11;;;;;;;;;;;11.20;99.90;;;;;;4969993;28;20396;-79
2023/04/09 08:34:37;;;;;;;;;;;11.20;99.90;;;;;;4965451;28;19918;-79
2023/04/09 08:37:08;;;;;;;;;;;11.50;99.90;;;;;;4974351;28;19916;-78
2023/04/09 08:39:35;;;;;;;;;;;11.40;99.90;;;;;;4978907;28;19920;-78
2023/04/09 08:42:01;;;;;;;;;;;11.50;99.90;;;;;;4978652;28;19933;-78
2023/04/09 08:44:27;;;;;;;;;;;11.70;99.90;;;;;;4976787;28;19992;-78
2023/04/09 08:47:10;;;;;;;;;;;12.30;99.90;;;;;;4980192;28;19906;-78
2023/04/09 08:49:41;;;;;;;;;;;12.00;99.90;;;;;;4970797;28;19996;-78
2023/04/09 08:52:07;;;;;;;;;;;12.30;99.90;;;;;;4986062;28;19917;-78
2023/04/09 08:54:38;;;;;;;;;;;12.80;99.90;;;;;;4975941;28;21433;-78
2023/04/09 08:57:05;;;;;;;;;;;13.20;99.90;;;;;;4973776;28;19930;-79
2023/04/09 08:59:35;;;;;;;;;;;13.20;99.90;;;;;;4985603;28;19913;-78
2023/04/09 09:02:08;;;;;;;;;;;13.40;99.90;;;;;;4978771;28;20392;-79
2023/04/09 09:04:48;;;;;;;;;;;13.00;99.90;;;;;;4982326;28;19929;-79
2023/04/09 09:07:16;;;;;;;;;;;13.10;99.90;;;;;;4971701;28;19929;-78
2023/04/09 09:09:52;;;;;;;;;;;12.50;99.90;;;;;;4981600;28;19917;-79
2023/04/09 09:12:38;;;;;;;;;;;12.40;99.90;;;;;;4988249;28;19917;-79
2023/04/09 09:15:04;;;;;;;;;;;12.10;99.90;;;;;;4981258;28;20497;-79
2023/04/09 09:17:31;;;;;;;;;;;11.70;99.90;;;;;;4983688;28;20004;-79
2023/04/09 09:19:58;;;;;;;;;;;11.40;99.90;;;;;;4983394;28;20382;-78
2023/04/09 09:25:29;;;;;;;;;;;10.90;99.90;;;;;;4987474;28;19906;-78
2023/04/09 09:28:05;;;;;;;;;;;11.00;99.90;;;;;;4981550;28;19906;-77
2023/04/09 09:30:39;;;;;;;;;;;11.00;99.90;;;;;;4983558;28;19937;-78
2023/04/09 09:33:07;;;;;;;;;;;11.20;99.90;;;;;;4978001;28;20299;-78
2023/04/09 09:35:53;;;;;;;;;;;11.40;99.90;;;;;;4982454;28;19910;-78
2023/04/09 09:38:22;;;;;;;;;;;11.60;99.90;;;;;;4998857;28;19909;-78
2023/04/09 09:40:54;;;;;;;;;;;11.90;99.90;;;;;;4991479;28;19906;-78
2023/04/09 09:43:21;;;;;;;;;;;11.60;99.90;;;;;;4990371;28;19949;-78
2023/04/09 09:45:51;;;;;;;;;;;10.90;99.90;;;;;;4976340;28;20000;-78
2023/04/09 09:48:18;;;;;;;;;;;10.30;99.90;;;;;;4990194;28;20000;-78
2023/04/09 09:50:46;;;;;;;;;;;10.10;99.90;;;;;;4989636;28;19905;-78
2023/04/09 09:53:21;;;;;;;;;;;11.00;99.90;;;;;;4986172;28;19909;-78
2023/04/09 09:55:58;;;;;;;;;;;11.80;99.90;;;;;;4989421;28;19909;-78
2023/04/09 09:58:31;;;;;;;;;;;12.90;99.90;;;;;;4986592;28;20507;-78
2023/04/09 10:00:59;;;;;;;;;;;13.00;99.90;;;;;;4990047;28;19909;-78
2023/04/09 10:06:32;;;;;;;;;;;12.90;99.90;;;;;;4990509;28;19909;-80
2023/04/09 10:09:03;;;;;;;;;;;13.10;99.90;;;;;;4970183;28;20320;-78
2023/04/09 10:11:32;;;;;;;;;;;13.00;99.90;;;;;;4953339;28;19945;-78
2023/04/09 10:14:00;;;;;;;;;;;12.80;99.90;;;;;;4969194;28;19960;-79
2023/04/09 10:19:35;;;;;;;;;;;12.30;99.90;;;;;;4971038;28;19977;-77
2023/04/09 10:22:11;;;;;;;;;;;11.60;99.90;;;;;;4973078;28;19914;-77
2023/04/09 10:24:38;;;;;;;;;;;12.00;99.90;;;;;;4971472;28;19906;-78
2023/04/09 10:27:13;;;;;;;;;;;13.10;99.90;;;;;;4992432;28;19910;-80
2023/04/09 10:29:47;;;;;;;;;;;14.10;99.50;;;;;;4992542;28;19906;-78
2023/04/09 10:32:22;;;;;;;;;;;14.10;96.20;;;;;;4989821;28;19913;-78
2023/04/09 10:34:53;;;;;;;;;;;13.30;98.60;;;;;;4968748;28;19909;-78
2023/04/09 10:37:24;;;;;;;;;;;13.90;97.80;;;;;;4987115;28;19906;-78
2023/04/09 10:39:51;;;;;;;;;;;14.70;96.70;;;;;;4976241;28;20056;-79
2023/04/09 10:42:26;;;;;;;;;;;15.00;96.60;;;;;;4972139;28;19984;-79
2023/04/09 10:45:21;;;;;;;;;;;15.50;95.30;;;;;;4988192;28;19910;-80
2023/04/09 10:57:27;;;;;;;;;;;16.10;90.00;;;;;;4971342;28;19912;-77
2023/04/09 10:59:59;;;;;;;;;;;14.60;91.50;;;;;;4980079;28;19906;-77
2023/04/09 11:12:59;;;;;;;;;;;13.30;96.80;;;;;;5104683;23;19922;-78
2023/04/09 11:15:35;;;;;;;;;;;13.10;95.60;;;;;;4964189;28;19917;-78
2023/04/09 11:18:01;;;;;;;;;;;12.80;96.20;;;;;;4966731;28;19910;-78
2023/04/09 11:20:29;;;;;;;;;;;12.00;98.70;;;;;;4969789;28;19910;-78
2023/04/09 11:23:05;;;;;;;;;;;11.40;99.90;;;;;;4965361;28;20257;-78
2023/04/09 11:25:32;;;;;;;;;;;11.40;99.90;;;;;;4964623;28;19906;-78
2023/04/09 11:28:03;;;;;;;;;;;11.60;99.90;;;;;;4966429;28;20348;-78
2023/04/09 11:30:37;;;;;;;;;;;11.80;99.90;;;;;;4964724;28;20348;-78
2023/04/09 11:33:05;;;;;;;;;;;12.00;99.90;;;;;;4966025;28;20265;-78
2023/04/09 11:35:32;;;;;;;;;;;12.30;99.90;;;;;;4965760;28;19910;-78
2023/04/09 11:38:05;;;;;;;;;;;12.50;98.80;;;;;;4965352;28;19906;-78
2023/04/09 11:40:35;;;;;;;;;;;12.70;98.60;;;;;;4964034;28;19910;-78
2023/04/09 11:43:08;;;;;;;;;;;13.30;97.50;;;;;;4959882;28;19965;-78
2023/04/09 11:45:35;;;;;;;;;;;13.30;95.80;;;;;;4968970;28;20609;-78
2023/04/09 11:48:03;;;;;;;;;;;12.10;96.90;;;;;;4948815;28;19932;-79
2023/04/09 11:50:33;;;;;;;;;;;11.70;97.50;;;;;;4966049;28;19913;-78
2023/04/09 11:53:20;;;;;;;;;;;12.10;97.70;;;;;;4965023;28;19912;-79
2023/04/09 11:55:50;;;;;;;;;;;12.40;95.40;;;;;;4954580;28;19917;-78
2023/04/09 11:58:17;;;;;;;;;;;12.10;95.70;;;;;;4952587;28;19940;-78
2023/04/09 12:01:13;;;;;;;;;;;11.80;96.70;;;;;;4961118;28;19910;-79
2023/04/09 12:03:40;;;;;;;;;;;12.00;97.60;;;;;;4921425;28;19910;-78
2023/04/09 12:06:08;;;;;;;;;;;12.10;97.50;;;;;;4966876;28;19906;-78
2023/04/09 12:08:36;;;;;;;;;;;12.30;96.90;;;;;;4964481;28;19989;-78
2023/04/09 12:11:11;;;;;;;;;;;11.60;99.90;;;;;;4965287;28;20286;-77
2023/04/09 12:14:02;;;;;;;;;;;11.00;99.90;;;;;;4952028;28;20009;-78
2023/04/09 12:16:33;;;;;;;;;;;10.40;99.90;;;;;;4965492;28;19906;-78
2023/04/09 12:19:10;;;;;;;;;;;10.50;99.90;;;;;;4965531;28;19949;-78
2023/04/09 12:21:53;;;;;;;;;;;10.50;99.90;;;;;;4960979;28;20411;-78
2023/04/09 12:24:24;;;;;;;;;;;10.60;99.90;;;;;;4946471;28;19910;-79
2023/04/09 12:26:50;;;;;;;;;;;10.70;99.90;;;;;;4965145;28;19917;-78
2023/04/09 12:29:19;;;;;;;;;;;11.30;99.90;;;;;;4969412;28;19906;-78
2023/04/09 12:31:45;;;;;;;;;;;11.50;99.90;;;;;;4949184;28;19906;-77
2023/04/09 12:34:13;;;;;;;;;;;11.70;99.90;;;;;;4979282;28;19996;-77
2023/04/09 12:36:40;;;;;;;;;;;12.00;97.90;;;;;;4948008;28;19906;-77
2023/04/09 12:39:14;;;;;;;;;;;11.40;98.00;;;;;;4964974;28;19910;-77
2023/04/09 12:41:49;;;;;;;;;;;11.50;98.50;;;;;;4965201;28;20340;-77
2023/04/09 12:44:16;;;;;;;;;;;11.70;98.60;;;;;;4951054;28;20352;-77
2023/04/09 12:46:43;;;;;;;;;;;11.80;98.40;;;;;;4946377;28;19976;-77
2023/04/09 12:49:08;;;;;;;;;;;11.60;98.90;;;;;;4969133;28;20000;-77
2023/04/09 12:51:34;;;;;;;;;;;11.50;97.80;;;;;;4965121;28;19989;-77
2023/04/09 12:54:02;;;;;;;;;;;11.40;98.10;;;;;;4967634;28;19974;-78
2023/04/09 12:56:28;;;;;;;;;;;11.10;99.40;;;;;;4964898;28;19906;-77
2023/04/09 12:58:57;;;;;;;;;;;11.00;99.90;;;;;;4947569;28;19913;-78
2023/04/09 13:01:26;;;;;;;;;;;10.90;99.90;;;;;;4967647;28;19910;-77
2023/04/09 13:03:54;;;;;;;;;;;10.80;99.90;;;;;;4963149;28;19918;-78
2023/04/09 13:06:25;;;;;;;;;;;10.50;99.90;;;;;;4964959;28;19910;-78
2023/04/09 13:08:59;;;;;;;;;;;10.20;99.90;;;;;;4960485;28;19957;-77
2023/04/09 13:11:24;;;;;;;;;;;10.10;99.90;;;;;;4959671;28;20000;-78
2023/04/09 13:13:58;;;;;;;;;;;10.20;99.90;;;;;;4962084;28;19945;-77
2023/04/09 13:16:26;;;;;;;;;;;10.30;99.90;;;;;;4968216;28;19910;-78
2023/04/09 13:18:58;;;;;;;;;;;10.40;99.90;;;;;;4943049;28;19910;-78
2023/04/09 13:21:37;;;;;;;;;;;10.30;99.90;;;;;;4959008;28;19934;-78
2023/04/09 13:24:04;;;;;;;;;;;10.40;99.90;;;;;;4928378;28;19913;-78
2023/04/09 13:26:30;;;;;;;;;;;10.10;99.90;;;;;;4958286;28;20278;-77
2023/04/09 13:28:57;;;;;;;;;;;10.30;99.90;;;;;;4964454;28;19913;-77
2023/04/09 13:31:31;;;;;;;;;;;10.20;99.90;;;;;;4952899;28;20268;-78
2023/04/09 13:34:01;;;;;;;;;;;10.20;99.90;;;;;;4982714;28;19968;-77
2023/04/09 13:36:35;;;;;;;;;;;10.30;99.90;;;;;;4960317;28;19910;-78
2023/04/09 13:39:03;;;;;;;;;;;10.40;99.90;;;;;;4947062;28;19906;-78
2023/04/09 13:41:33;;;;;;;;;;;10.70;99.90;;;;;;4947118;28;19933;-78
2023/04/09 13:44:02;;;;;;;;;;;10.80;99.90;;;;;;4947731;28;19932;-78
2023/04/09 13:46:28;;;;;;;;;;;10.80;99.90;;;;;;4964506;28;20377;-78
2023/04/09 13:49:02;;;;;;;;;;;10.70;99.90;;;;;;4964408;28;19910;-78
2023/04/09 13:51:30;;;;;;;;;;;10.60;99.90;;;;;;4964335;28;19910;-77
2023/04/09 13:53:59;;;;;;;;;;;10.50;99.90;;;;;;4962499;28;19914;-78
2023/04/09 13:56:26;;;;;;;;;;;10.40;99.90;;;;;;4954899;28;20270;-77
2023/04/09 13:58:57;;;;;;;;;;;10.30;99.90;;;;;;4964315;28;20295;-77
2023/04/09 14:01:27;;;;;;;;;;;10.40;99.90;;;;;;4963188;28;19997;-77
2023/04/09 14:04:01;;;;;;;;;;;10.60;99.90;;;;;;4963510;28;19913;-77
2023/04/09 14:06:32;;;;;;;;;;;10.80;99.90;;;;;;4952737;28;19917;-78
2023/04/09 14:09:15;;;;;;;;;;;11.30;99.90;;;;;;4963254;28;20026;-77
2023/04/09 14:11:41;;;;;;;;;;;11.60;99.90;;;;;;4955940;28;19914;-77
2023/04/09 14:14:10;;;;;;;;;;;11.70;99.90;;;;;;4941828;28;19917;-77
2023/04/09 14:16:35;;;;;;;;;;;11.50;99.90;;;;;;4952142;28;19907;-77
2023/04/09 14:19:06;;;;;;;;;;;11.20;99.90;;;;;;4964027;28;19917;-77
2023/04/09 14:21:39;;;;;;;;;;;11.30;99.90;;;;;;4963977;28;19913;-77
2023/04/09 14:24:11;;;;;;;;;;;11.60;99.90;;;;;;4963324;28;19957;-77
2023/04/09 14:26:36;;;;;;;;;;;11.90;99.90;;;;;;4953369;28;19914;-77
2023/04/09 14:29:04;;;;;;;;;;;11.40;99.90;;;;;;4967579;28;19997;-77
2023/04/09 14:31:34;;;;;;;;;;;11.30;99.90;;;;;;4963129;28;19976;-77
2023/04/09 14:34:09;;;;;;;;;;;11.40;99.90;;;;;;4981474;28;19910;-77
2023/04/09 14:36:35;;;;;;;;;;;11.00;99.90;;;;;;4974449;28;19906;-78
2023/04/09 14:41:51;;;;;;;;;;;11.10;99.90;;;;;;4967391;28;19949;-77
2023/04/09 14:44:24;;;;;;;;;;;11.00;99.90;;;;;;4948792;28;19956;-77
2023/04/09 14:46:56;;;;;;;;;;;10.90;99.90;;;;;;4950857;28;19907;-77
2023/04/09 14:49:27;;;;;;;;;;;10.70;99.90;;;;;;4960137;28;19993;-77
2023/04/09 14:51:53;;;;;;;;;;;10.50;99.90;;;;;;4963561;28;19906;-77
2023/04/09 14:54:24;;;;;;;;;;;10.50;99.90;;;;;;4964686;28;19993;-79
2023/04/09 14:56:57;;;;;;;;;;;10.40;99.90;;;;;;4956297;28;20171;-78
2023/04/09 14:59:25;;;;;;;;;;;10.40;99.90;;;;;;4960525;28;20344;-77
2023/04/09 15:01:53;;;;;;;;;;;10.50;99.90;;;;;;4964728;28;19989;-78
2023/04/09 15:04:19;;;;;;;;;;;10.70;99.90;;;;;;4965167;28;19912;-78
2023/04/09 15:06:49;;;;;;;;;;;10.50;99.90;;;;;;4963393;28;19906;-78
2023/04/09 15:09:15;;;;;;;;;;;10.60;99.90;;;;;;4959486;28;19912;-78
2023/04/09 15:11:40;;;;;;;;;;;10.40;99.90;;;;;;4963413;28;19921;-77